Time;durP1;ratioP1;P1;durP2;ratioP2;P2;SDS_P1;SDS_P2;PMS_P1;PMS_P2;Temp;Humidity;BMP_temperature;BMP_pressure;BME280_temperature;BME280_humidity;BME280_pressure;Samples;Min_cycle;Max_cycle;Signal;HPM_P1;HPM_P2
2022/02/03 00:04:56;;;;;;;26.20;17.07;;;;;;;0.92;78.95;99281.44;1679355;84;21149;-73
2022/02/03 00:07:23;;;;;;;28.20;16.97;;;;;;;0.84;79.21;99298.90;1697344;83;21112;-70
2022/02/03 00:10:05;;;;;;;21.80;15.17;;;;;;;0.88;79.12;99298.43;1679227;83;21069;-73
2022/02/03 00:24:02;;;;;;;24.10;16.70;;;;;;;0.89;78.93;99292.22;1677852;81;21656;-73
2022/02/03 00:25:58;;;;;;;25.97;18.15;;;;;;;0.94;78.84;99286.50;1687841;83;21074;-75
2022/02/03 00:28:29;;;;;;;26.43;17.80;;;;;;;1.06;78.67;99296.30;1693750;83;21003;-73
2022/02/03 00:31:08;;;;;;;25.03;18.33;;;;;;;1.03;78.55;99292.66;1691562;85;21487;-73
2022/02/03 00:33:47;;;;;;;25.07;17.57;;;;;;;0.95;78.82;99291.61;1688769;83;21134;-74
2022/02/03 00:48:14;;;;;;;29.90;19.60;;;;;;;0.92;79.00;99291.93;1673375;83;21149;-75
2022/02/03 00:49:38;;;;;;;29.97;17.47;;;;;;;0.84;79.55;99285.28;1697168;83;21047;-74
2022/02/03 00:52:01;;;;;;;31.73;18.87;;;;;;;0.87;79.57;99282.86;1681988;83;21011;-73
2022/02/03 00:54:31;;;;;;;29.60;18.87;;;;;;;1.00;79.22;99281.14;1691330;83;21022;-74
2022/02/03 00:57:03;;;;;;;27.27;18.20;;;;;;;0.99;79.08;99292.63;1690847;83;21042;-75
2022/02/03 00:59:37;;;;;;;30.97;19.87;;;;;;;0.96;79.13;99279.30;1692505;83;21542;-74
2022/02/03 01:02:12;;;;;;;28.70;19.20;;;;;;;0.93;79.31;99273.88;1693037;83;21010;-74
2022/02/03 01:04:41;;;;;;;28.50;20.07;;;;;;;1.00;79.17;99281.14;1691886;83;21109;-73
2022/02/03 01:07:12;;;;;;;28.27;19.77;;;;;;;1.06;78.91;99279.23;1680328;83;21039;-74
2022/02/03 01:09:49;;;;;;;26.13;18.10;;;;;;;1.00;79.07;99279.36;1686078;83;20991;-73
2022/02/03 01:12:26;;;;;;;28.07;19.40;;;;;;;0.99;79.14;99283.44;1704643;81;20982;-73
2022/02/03 01:17:29;;;;;;;25.17;17.37;;;;;;;1.07;78.87;99291.36;1667634;84;21073;-73
2022/02/03 01:44:23;;;;;;;31.33;20.90;;;;;;;1.12;78.49;99296.49;1635733;84;21117;-72
2022/02/03 01:46:57;;;;;;;29.23;19.07;;;;;;;1.19;78.40;99300.66;1658866;84;21038;-73
2022/02/03 01:49:38;;;;;;;29.70;19.97;;;;;;;1.29;78.13;99303.99;1658651;84;21069;-73
2022/02/03 01:51:55;;;;;;;33.17;21.57;;;;;;;1.30;78.06;99306.97;1661622;84;21042;-73
2022/02/03 01:54:30;;;;;;;32.10;19.70;;;;;;;1.24;78.17;99306.74;1668426;84;21542;-74
2022/02/03 01:57:08;;;;;;;28.07;19.50;;;;;;;1.17;78.37;99298.67;1634936;85;21043;-74
2022/02/03 01:59:36;;;;;;;30.27;20.87;;;;;;;1.24;78.29;99306.25;1713337;83;21084;-73
2022/02/03 02:02:08;;;;;;;30.87;20.87;;;;;;;1.32;78.08;99304.20;1694374;83;21030;-74
2022/02/03 02:04:52;;;;;;;30.73;20.40;;;;;;;1.30;78.12;99298.25;1687431;83;21115;-74
2022/02/03 02:07:30;;;;;;;30.77;20.33;;;;;;;1.25;78.22;99307.91;1689634;83;21079;-73
2022/02/03 02:18:58;;;;;;;32.47;21.60;;;;;;;1.19;78.41;99299.81;1658585;84;21061;-72
2022/02/03 02:44:24;;;;;;;29.17;21.67;;;;;;;1.52;78.06;99300.35;1678892;84;21026;-73
2022/02/03 02:46:53;;;;;;;29.87;21.00;;;;;;;1.50;78.06;99301.50;1673158;84;21072;-72
2022/02/03 02:49:49;;;;;;;24.97;19.87;;;;;;;1.51;78.13;99297.41;1674917;84;21040;-73
2022/02/03 02:52:21;;;;;;;30.03;21.63;;;;;;;1.59;77.96;99296.62;1670197;84;21125;-73
2022/02/03 02:55:15;;;;;;;26.63;19.67;;;;;;;1.60;77.90;99296.13;1671149;84;21081;-73
2022/02/03 03:31:21;;;;;;;24.63;19.47;;;;;;;2.20;76.38;99317.59;1647839;85;21047;-73
2022/02/03 03:34:01;;;;;;;25.07;18.67;;;;;;;2.22;76.31;99319.06;1710658;82;21059;-72
2022/02/03 03:36:22;;;;;;;24.33;18.13;;;;;;;2.22;76.40;99330.08;1713709;82;21141;-73
2022/02/03 03:38:50;;;;;;;31.23;20.93;;;;;;;2.21;76.33;99331.08;1721088;82;21063;-71
2022/02/03 03:41:20;;;;;;;22.33;18.93;;;;;;;2.17;76.30;99334.52;1668155;83;21062;-72
2022/02/03 03:44:03;;;;;;;28.10;21.50;;;;;;;2.13;76.54;99330.06;1646851;85;22170;-71
2022/02/03 03:46:34;;;;;;;29.97;20.13;;;;;;;2.16;76.61;99337.30;1718690;82;21002;-72
2022/02/03 03:49:14;;;;;;;30.57;20.70;;;;;;;2.26;76.52;99341.45;1710724;82;21082;-73
2022/02/03 03:52:08;;;;;;;28.83;20.27;;;;;;;2.39;76.27;99335.72;1709697;82;21089;-74
2022/02/03 03:54:51;;;;;;;26.93;19.80;;;;;;;2.42;76.01;99340.66;1711597;82;21010;-73
2022/02/03 04:29:36;;;;;;;24.37;17.53;;;;;;;2.05;77.98;99368.63;1703528;82;22214;-71
2022/02/03 04:32:22;;;;;;;28.77;21.95;;;;;;;1.98;78.29;99368.91;1695098;82;21312;-71
2022/02/03 04:43:07;;;;;;;27.53;21.17;;;;;;;1.91;78.82;99370.86;1740665;82;21392;-73
2022/02/03 05:12:55;;;;;;;31.27;23.10;;;;;;;1.72;79.73;99399.48;1699359;82;20998;-75
2022/02/03 05:19:38;;;;;;;30.83;22.73;;;;;;;1.98;78.94;99415.75;1696421;83;21007;-72
2022/02/03 06:06:48;;;;;;;27.97;21.97;;;;;;;2.05;79.25;99456.19;1701989;82;21137;-72
2022/02/03 06:14:36;;;;;;;29.33;21.57;;;;;;;2.36;78.39;99467.55;1701640;82;21150;-76
2022/02/03 06:22:26;;;;;;;29.57;21.60;;;;;;;2.44;78.28;99482.55;1703210;80;20169;-73
2022/02/03 06:27:24;;;;;;;32.87;22.87;;;;;;;2.39;78.23;99490.89;1704035;82;21053;-71
2022/02/03 06:29:55;;;;;;;29.20;20.90;;;;;;;2.42;78.10;99492.41;1702323;82;21041;-74
2022/02/03 06:32:20;;;;;;;30.10;21.33;;;;;;;2.44;78.17;99491.75;1714508;82;21042;-73
2022/02/03 06:34:45;;;;;;;26.75;19.07;;;;;;;2.58;78.00;99496.91;1701522;81;21466;-74
2022/02/03 06:37:12;;;;;;;25.80;19.98;;;;;;;2.75;77.44;99498.65;1707588;82;21071;-72
2022/02/03 06:39:39;;;;;;;24.80;19.17;;;;;;;2.79;77.05;99501.30;1655925;84;21089;-73
2022/02/03 06:42:08;;;;;;;;;;;;;;;2.79;77.16;99495.19;1649227;85;21022;-73
2022/02/03 06:44:44;;;;;;;26.27;19.43;;;;;;;2.80;77.23;99493.72;1667091;82;20175;-72
2022/02/03 06:52:26;;;;;;;23.32;18.50;;;;;;;2.79;76.99;99507.02;1731087;82;21013;-74
2022/02/03 06:57:26;;;;;;;24.93;17.90;;;;;;;2.80;76.84;99509.50;1715385;82;20999;-73
2022/02/03 06:59:56;;;;;;;25.50;18.90;;;;;;;2.89;76.38;99510.38;1711876;82;21064;-74
2022/02/03 07:02:14;;;;;;;30.40;18.93;;;;;;;2.92;76.54;99516.15;1669399;84;21025;-74
2022/02/03 07:04:44;;;;;;;28.27;21.23;;;;;;;2.88;76.63;99512.19;1719125;82;21002;-75
2022/02/03 07:07:08;;;;;;;32.23;23.70;;;;;;;2.88;76.83;99520.55;1717624;82;21083;-73
2022/02/03 07:09:34;;;;;;;37.70;26.15;;;;;;;2.88;77.02;99522.72;1713727;82;20974;-77
2022/02/03 07:12:03;;;;;;;41.20;26.90;;;;;;;2.93;76.97;99525.68;1703086;82;21410;-76
2022/02/03 07:14:32;;;;;;;31.93;21.97;;;;;;;2.94;76.66;99525.20;1728430;82;20998;-75
2022/02/03 07:17:00;;;;;;;31.27;20.77;;;;;;;2.95;76.65;99537.88;1678741;82;21141;-77
2022/02/03 07:19:26;;;;;;;30.60;21.30;;;;;;;3.00;76.34;99536.91;1712542;82;21007;-69
2022/02/03 07:21:52;;;;;;;33.95;24.60;;;;;;;3.07;75.96;99536.58;1712917;82;21019;-69
2022/02/03 07:24:18;;;;;;;40.48;26.30;;;;;;;3.08;75.93;99540.88;1661194;83;20998;-67
2022/02/03 07:26:44;;;;;;;43.60;29.82;;;;;;;3.01;76.18;99540.67;1710208;83;21042;-72
2022/02/03 07:29:11;;;;;;;38.00;26.13;;;;;;;3.00;76.49;99550.08;1667776;84;21026;-63
2022/02/03 07:31:38;;;;;;;39.80;25.08;;;;;;;3.02;76.44;99550.23;1676259;84;21125;-62
2022/02/03 07:34:11;;;;;;;36.00;22.93;;;;;;;2.99;76.14;99546.59;1666874;83;21002;-60
2022/02/03 07:36:34;;;;;;;23.73;19.37;;;;;;;3.00;76.11;99546.13;1657652;84;21059;-60
2022/02/03 07:39:01;;;;;;;28.42;20.43;;;;;;;3.04;75.99;99548.77;1693670;83;21030;-58
2022/02/03 07:41:27;;;;;;;28.17;21.47;;;;;;;2.97;76.25;99554.33;1663413;84;21481;-57
2022/02/03 07:43:53;;;;;;;24.63;20.02;;;;;;;2.95;76.54;99557.61;1634607;86;21104;-59
2022/02/03 07:46:20;;;;;;;22.82;19.15;;;;;;;2.93;76.63;99557.27;1711390;82;21593;-61
2022/02/03 07:48:49;;;;;;;;;;;;;;;2.93;76.58;99563.03;1719391;82;22134;-63
2022/02/03 07:51:14;;;;;;;;;;;;;;;2.95;76.77;99566.83;1710955;82;20195;-61
2022/02/03 07:53:41;;;;;;;25.20;19.07;;;;;;;2.92;76.85;99567.48;1713718;82;20148;-60
2022/02/03 07:56:08;;;;;;;28.87;20.23;;;;;;;2.90;77.03;99570.77;1713542;80;21033;-61
2022/02/03 07:58:34;;;;;;;24.57;19.07;;;;;;;2.99;76.74;99573.42;1716137;82;21065;-62
2022/02/03 08:01:01;;;;;;;26.33;20.02;;;;;;;3.15;76.29;99573.50;1717101;82;21026;-61
2022/02/03 08:03:27;;;;;;;30.05;20.75;;;;;;;3.23;76.04;99568.25;1718583;82;21122;-63
2022/02/03 08:06:00;;;;;;;21.20;18.45;;;;;;;3.26;76.08;99575.02;1708784;82;21000;-63
2022/02/03 08:08:30;;;;;;;25.03;20.47;;;;;;;3.23;76.10;99572.20;1713640;82;21006;-63
2022/02/03 08:10:57;;;;;;;20.37;17.53;;;;;;;3.23;75.94;99580.09;1714708;82;21030;-62
2022/02/03 08:13:32;;;;;;;22.10;18.37;;;;;;;3.20;75.92;99580.44;1697387;82;21040;-64
2022/02/03 08:16:02;;;;;;;21.67;17.67;;;;;;;3.10;76.00;99586.30;1704362;83;21022;-63
2022/02/03 08:18:23;;;;;;;22.60;17.50;;;;;;;3.09;76.03;99584.17;1664420;84;21526;-63
2022/02/03 08:20:58;;;;;;;24.33;18.77;;;;;;;3.16;76.23;99584.84;1701671;83;21010;-64
2022/02/03 08:26:06;;;;;;;22.17;17.60;;;;;;;3.07;76.51;99587.92;1725071;82;21118;-63
2022/02/03 08:31:00;;;;;;;20.13;17.97;;;;;;;2.96;77.21;99591.69;1726170;82;20998;-63
2022/02/03 08:33:26;;;;;;;18.45;16.23;;;;;;;2.96;77.40;99594.78;1712503;82;21041;-65
2022/02/03 08:35:52;;;;;;;;;;;;;;;3.01;77.46;99590.70;1724814;82;21052;-62
2022/02/03 08:41:07;;;;;;;16.10;13.00;;;;;;;3.16;76.85;99596.20;1718461;82;21679;-63
2022/02/03 08:43:16;;;;;;;17.97;13.87;;;;;;;3.18;77.03;99599.99;1710417;82;21066;-62
2022/02/03 08:45:44;;;;;;;17.67;15.07;;;;;;;3.20;77.08;99605.92;1718291;80;21048;-63
2022/02/03 08:48:12;;;;;;;21.37;17.43;;;;;;;3.19;76.88;99606.92;1709546;83;21407;-63
2022/02/03 08:50:39;;;;;;;22.30;17.43;;;;;;;3.10;76.95;99612.64;1689311;83;21142;-62
2022/02/03 08:58:39;;;;;;;24.20;18.50;;;;;;;3.16;77.02;99619.90;1690185;83;21090;-62
2022/02/03 09:28:55;;;;;;;23.00;18.07;;;;;;;2.44;80.74;99652.20;1725748;82;21066;-64
2022/02/03 09:52:32;;;;;;;10.87;9.63;;;;;;;2.30;82.21;99664.92;1717931;82;21562;-62
2022/02/03 10:00:42;;;;;;;11.60;10.37;;;;;;;2.45;81.73;99678.83;1728007;82;21026;-63
2022/02/03 10:03:19;;;;;;;11.20;10.07;;;;;;;2.37;81.73;99673.52;1644728;85;21102;-62
2022/02/03 10:06:13;;;;;;;12.87;10.07;;;;;;;2.28;81.89;99685.75;1646244;85;21327;-64
2022/02/03 10:08:27;;;;;;;12.17;10.63;;;;;;;2.22;81.91;99695.07;1694206;82;21501;-63
2022/02/03 10:14:31;;;;;;;12.60;11.27;;;;;;;2.28;81.42;99696.27;1800998;77;22151;-62
2022/02/03 10:17:00;;;;;;;;;;;;;;;2.18;81.66;99710.00;1782191;78;21045;-64
2022/02/03 10:19:33;;;;;;;13.83;12.37;;;;;;;2.07;81.88;99707.94;1770449;78;20146;-63
2022/02/03 10:21:54;;;;;;;11.93;10.67;;;;;;;1.94;81.95;99703.50;1747937;80;21097;-63
2022/02/03 10:24:22;;;;;;;13.05;10.23;;;;;;;1.85;82.03;99700.47;1724523;81;21088;-65
2022/02/03 10:26:52;;;;;;;11.67;9.83;;;;;;;1.85;81.93;99712.30;1670032;83;21022;-64
2022/02/03 10:29:26;;;;;;;9.53;8.63;;;;;;;1.91;81.84;99711.70;1688423;83;21023;-62
2022/02/03 10:31:52;;;;;;;10.27;9.27;;;;;;;1.99;81.79;99707.83;1688353;83;21546;-62
2022/02/03 10:34:25;;;;;;;10.95;9.85;;;;;;;2.00;81.56;99713.45;1713308;81;21057;-64
2022/02/03 10:42:23;;;;;;;13.23;10.93;;;;;;;1.83;81.84;99739.18;1692791;83;21117;-64
2022/02/03 10:50:47;;;;;;;11.13;10.00;;;;;;;1.84;81.65;99741.67;1690473;83;21604;-62
2022/02/03 11:03:22;;;;;;;10.07;9.13;;;;;;;1.39;81.89;99753.42;1651990;86;21027;-63
2022/02/03 11:08:16;;;;;;;14.73;11.87;;;;;;;1.35;80.31;99752.38;1682600;83;21014;-63
2022/02/03 11:10:45;;;;;;;13.43;10.77;;;;;;;1.32;80.31;99755.31;1702446;82;21038;-64
2022/02/03 11:13:07;;;;;;;12.60;11.33;;;;;;;1.26;80.46;99769.02;1731210;81;21121;-63
2022/02/03 11:15:34;;;;;;;13.73;12.10;;;;;;;1.19;79.93;99768.39;1738736;81;21049;-62
2022/02/03 11:18:07;;;;;;;13.10;11.60;;;;;;;1.19;79.94;99769.23;1727463;81;21065;-61
2022/02/03 11:20:42;;;;;;;14.20;12.10;;;;;;;1.25;79.51;99773.91;1685822;83;21057;-66
2022/02/03 11:31:12;;;;;;;12.03;10.23;;;;;;;1.27;77.41;99779.03;1675326;83;21092;-65
2022/02/03 11:33:48;;;;;;;11.13;9.13;;;;;;;1.25;77.36;99782.28;1716076;81;21088;-65
2022/02/03 11:39:11;;;;;;;11.03;9.37;;;;;;;1.30;76.82;99778.72;1687575;83;21085;-65
2022/02/03 12:18:01;;;;;;;11.90;9.50;;;;;;;0.87;80.77;99828.12;1666542;84;21066;-64
2022/02/03 12:26:21;;;;;;;9.87;8.27;;;;;;;1.06;80.67;99840.89;1648224;85;21209;-65
2022/02/03 12:28:58;;;;;;;12.70;7.90;;;;;;;1.09;80.47;99849.78;1658414;84;21632;-63
2022/02/03 12:37:00;;;;;;;10.07;8.67;;;;;;;0.81;80.40;99861.47;1655371;85;21726;-63
2022/02/03 12:39:47;;;;;;;9.23;8.00;;;;;;;0.88;79.97;99871.73;1675068;84;21034;-63
2022/02/03 12:42:19;;;;;;;10.93;9.07;;;;;;;0.82;80.07;99868.36;1679943;83;21025;-65
2022/02/03 12:44:38;;;;;;;9.77;8.73;;;;;;;0.75;80.27;99872.03;1685880;82;21073;-64
2022/02/03 12:47:05;;;;;;;10.13;8.33;;;;;;;0.72;79.89;99867.54;1703928;82;22144;-64
2022/02/03 12:49:37;;;;;;;13.53;11.27;;;;;;;0.28;78.93;99817.20;1710235;82;21022;-60
2022/02/03 12:52:23;;;;;;;12.63;9.47;;;;;;;0.71;78.62;99885.54;1646088;85;21171;-64
2022/02/03 12:54:50;;;;;;;12.30;10.77;;;;;;;0.67;78.94;99892.03;1646788;86;21059;-64
2022/02/03 12:57:34;;;;;;;12.03;9.10;;;;;;;0.62;78.83;99895.04;1649832;85;21620;-64
2022/02/03 13:00:13;;;;;;;10.70;9.30;;;;;;;0.67;78.95;99888.91;1669946;84;21601;-65
2022/02/03 13:02:37;;;;;;;12.10;9.83;;;;;;;0.68;78.40;99891.90;1646796;85;21095;-71
2022/02/03 13:05:05;;;;;;;10.57;8.57;;;;;;;0.74;78.45;99898.39;1658867;84;21043;-72
2022/02/03 13:07:32;;;;;;;12.90;10.40;;;;;;;0.73;78.42;99895.41;1673582;84;21074;-72
2022/02/03 13:10:10;;;;;;;12.53;9.75;;;;;;;0.77;78.37;99902.04;1643778;86;20982;-72
2022/02/03 13:12:48;;;;;;;13.20;10.73;;;;;;;0.76;78.61;99899.09;1668792;84;21032;-72
2022/02/03 13:15:08;;;;;;;14.67;10.00;;;;;;;0.76;78.46;99906.47;1668601;84;22166;-73
2022/02/03 13:17:39;;;;;;;11.10;9.87;;;;;;;0.73;77.76;99903.28;1670503;84;21054;-72
2022/02/03 13:20:19;;;;;;;12.40;9.90;;;;;;;0.73;77.32;99904.59;1662343;84;21643;-73
2022/02/03 13:25:14;;;;;;;11.40;9.77;;;;;;;0.71;77.28;99909.15;1662591;85;21089;-72
2022/02/03 13:31:03;;;;;;;12.53;10.50;;;;;;;0.67;77.02;99906.45;1681530;84;21039;-72
2022/02/03 13:33:30;;;;;;;13.60;10.47;;;;;;;0.65;76.75;99913.63;1658649;84;21021;-72
2022/02/03 13:36:06;;;;;;;14.27;11.47;;;;;;;0.60;77.04;99927.13;1669281;84;21597;-73
2022/02/03 13:38:55;;;;;;;16.20;11.50;;;;;;;0.62;77.15;99927.83;1679482;83;21087;-72
2022/02/03 13:41:18;;;;;;;12.50;10.83;;;;;;;0.61;76.91;99922.25;1691161;83;21040;-73
2022/02/03 13:43:45;;;;;;;11.53;10.07;;;;;;;0.62;76.78;99926.52;1652394;85;22191;-72
2022/02/03 13:46:25;;;;;;;14.60;11.87;;;;;;;0.63;76.51;99928.67;1676676;84;21042;-71
2022/02/03 13:48:52;;;;;;;13.00;10.93;;;;;;;0.67;76.22;99931.38;1685573;84;21082;-71
2022/02/03 13:51:18;;;;;;;13.53;10.73;;;;;;;0.70;76.00;99935.88;1674359;84;21585;-70
2022/02/03 13:53:56;;;;;;;12.10;10.53;;;;;;;0.72;75.86;99933.94;1681323;83;21030;-72
2022/02/03 14:21:05;;;;;;;13.13;9.90;;;;;;;0.42;74.24;99953.67;1691598;84;21043;-73
2022/02/03 14:29:06;;;;;;;11.63;9.70;;;;;;;0.32;73.06;99964.95;1682370;84;21030;-71
2022/02/03 14:31:33;;;;;;;13.00;9.27;;;;;;;0.30;72.59;99972.57;1712273;82;21599;-74
2022/02/03 14:34:01;;;;;;;14.93;10.20;;;;;;;0.26;73.14;99988.22;1669024;85;21042;-73
2022/02/03 14:36:30;;;;;;;12.07;9.93;;;;;;;0.26;73.06;99985.59;1684901;83;21070;-73
2022/02/03 14:39:07;;;;;;;12.60;9.40;;;;;;;0.23;72.88;99991.94;1682812;83;21566;-71
2022/02/03 14:41:34;;;;;;;10.17;8.27;;;;;;;0.22;72.54;99990.27;1682495;84;21554;-72
2022/02/03 14:43:56;;;;;;;10.30;9.20;;;;;;;0.21;72.42;99994.32;1657290;85;21073;-79
2022/02/03 14:46:21;;;;;;;9.93;8.93;;;;;;;0.24;71.30;99998.00;1672929;84;21117;-77
2022/02/03 14:48:48;;;;;;;12.63;9.53;;;;;;;0.21;71.08;99993.01;1667515;84;21116;-71
2022/02/03 14:51:18;;;;;;;8.17;7.37;;;;;;;0.22;70.36;99992.06;1680951;84;21030;-72
2022/02/03 14:59:12;;;;;;;9.10;8.07;;;;;;;-0.05;68.56;100023.08;1650357;84;21561;-70
2022/02/03 15:01:39;;;;;;;10.28;8.33;;;;;;;-0.09;69.10;100023.48;1678238;83;21539;-73
2022/02/03 15:04:09;;;;;;;;;;;;;;;-0.13;69.44;100042.55;1689318;83;21668;-74
2022/02/03 15:06:40;;;;;;;10.63;8.30;;;;;;;-0.11;69.68;100041.94;1700281;83;20182;-71
2022/02/03 15:09:46;;;;;;;11.43;7.97;;;;;;;-0.16;70.15;100048.52;1697553;84;21075;-74
2022/02/03 15:14:15;;;;;;;12.87;9.83;;;;;;;-0.10;70.48;100056.68;1653740;84;21106;-72
2022/02/03 15:16:41;;;;;;;10.40;9.28;;;;;;;-0.03;70.71;100058.33;1663630;84;21071;-72
2022/02/03 15:19:08;;;;;;;11.55;8.75;;;;;;;-0.02;70.64;100055.59;1667416;84;21063;-71
2022/02/03 15:21:35;;;;;;;10.27;8.10;;;;;;;-0.01;70.61;100057.72;1659580;84;21579;-71
2022/02/03 15:24:02;;;;;;;11.50;9.13;;;;;;;-0.03;70.77;100049.16;1670424;84;21094;-71
2022/02/03 15:26:29;;;;;;;14.07;10.32;;;;;;;0.01;70.90;100049.25;1684751;84;21077;-72
2022/02/03 15:28:55;;;;;;;;;;;;;;;0.02;70.96;100054.00;1686622;84;21082;-73
2022/02/03 15:31:27;;;;;;;16.20;10.27;;;;;;;0.04;71.38;100056.87;1684338;84;20208;-73
2022/02/03 15:33:57;;;;;;;17.07;12.17;;;;;;;-0.01;71.78;100076.89;1673445;84;21046;-75
2022/02/03 15:36:18;;;;;;;17.10;12.23;;;;;;;0.00;72.10;100062.02;1670902;83;21155;-75
2022/02/03 15:38:48;;;;;;;16.80;12.75;;;;;;;-0.01;72.25;100068.20;1684520;83;21101;-76
2022/02/03 15:41:21;;;;;;;18.87;13.40;;;;;;;-0.01;72.29;100076.06;1691773;83;21070;-75
2022/02/03 15:43:41;;;;;;;19.90;13.17;;;;;;;-0.06;72.25;100075.15;1694360;84;21125;-74
2022/02/03 15:46:11;;;;;;;20.07;15.13;;;;;;;-0.12;72.90;100083.97;1692586;83;21077;-73
2022/02/03 15:48:52;;;;;;;18.63;13.63;;;;;;;-0.17;72.93;100092.68;1722143;82;21057;-72
2022/02/03 16:02:03;;;;;;;13.50;10.60;;;;;;;-0.49;72.85;100112.67;1682465;82;21105;-74
2022/02/03 16:17:30;;;;;;;15.83;10.33;;;;;;;-0.53;72.12;100131.35;1698243;82;21066;-72
2022/02/03 16:20:07;;;;;;;12.97;8.90;;;;;;;-0.51;71.60;100142.53;1683954;83;21065;-72
2022/02/03 16:22:41;;;;;;;10.67;8.40;;;;;;;-0.51;70.86;100147.77;1683536;82;21089;-72
2022/02/03 16:50:22;;;;;;;9.80;8.10;;;;;;;-0.77;68.49;100180.77;1681880;83;21530;-73
2022/02/03 16:54:17;;;;;;;10.75;8.88;;;;;;;-0.90;67.74;100191.83;1674141;84;21801;-74
2022/02/03 16:56:45;;;;;;;9.23;6.93;;;;;;;-0.86;67.83;100206.34;1707615;82;21612;-72
2022/02/03 16:59:12;;;;;;;7.20;6.47;;;;;;;-0.94;67.20;100199.08;1745886;80;21034;-72
2022/02/03 17:01:38;;;;;;;5.87;5.28;;;;;;;-0.96;66.72;100204.91;1741302;79;21027;-71
2022/02/03 17:04:04;;;;;;;8.53;6.92;;;;;;;-1.02;66.63;100198.36;1734135;80;21069;-72
2022/02/03 17:06:31;;;;;;;7.90;5.78;;;;;;;-1.02;66.38;100206.66;1732747;80;21009;-71
2022/02/03 17:08:57;;;;;;;7.55;6.62;;;;;;;-1.06;66.43;100204.75;1733405;80;21492;-71
2022/02/03 17:11:23;;;;;;;7.70;5.72;;;;;;;-1.06;66.04;100223.06;1733664;80;21107;-70
2022/02/03 17:13:50;;;;;;;6.17;5.45;;;;;;;-1.09;65.50;100224.63;1737407;80;21084;-74
2022/02/03 17:16:20;;;;;;;5.72;4.20;;;;;;;-1.12;64.86;100231.39;1736523;81;21589;-73
2022/02/03 17:18:45;;;;;;;6.67;5.00;;;;;;;-1.17;64.34;100243.97;1728731;80;21461;-73
2022/02/03 17:21:13;;;;;;;6.70;5.30;;;;;;;-1.23;63.94;100237.90;1745704;80;21576;-73
2022/02/03 17:23:39;;;;;;;;;;;;;;;-1.30;64.39;100235.38;1739604;79;21536;-73
2022/02/03 17:28:40;;;;;;;6.00;5.17;;;;;;;-1.39;64.90;100235.12;1743209;80;21031;-72
2022/02/03 17:31:19;;;;;;;7.33;5.30;;;;;;;-1.34;64.74;100234.77;1737878;80;21533;-71
2022/02/03 17:54:03;;;;;;;11.70;8.00;;;;;;;-1.37;65.32;100229.30;1739876;80;21041;-73
2022/02/03 18:03:02;;;;;;;9.63;6.95;;;;;;;-1.33;65.52;100229.09;1725322;80;21017;-71
2022/02/03 18:09:00;;;;;;;5.60;4.60;;;;;;;-1.23;64.30;100224.34;1695477;83;21086;-72
2022/02/03 18:11:27;;;;;;;5.27;4.43;;;;;;;-1.27;63.77;100236.47;1698505;83;21069;-72
2022/02/03 18:30:02;;;;;;;4.13;3.57;;;;;;;-1.34;62.04;100247.02;1690871;84;21037;-73
2022/02/03 18:35:07;;;;;;;5.00;3.50;;;;;;;-1.42;61.79;100249.72;1670489;84;21133;-74
2022/02/03 18:53:20;;;;;;;6.23;4.57;;;;;;;-1.39;61.71;100256.52;1698972;83;21046;-74
2022/02/03 19:27:09;;;;;;;7.37;4.83;;;;;;;-1.29;60.79;100251.44;1646065;84;21124;-71
2022/02/03 20:07:56;;;;;;;4.30;3.03;;;;;;;-1.42;60.12;100284.19;1608504;84;21015;-74
2022/02/03 20:13:01;;;;;;;2.83;2.60;;;;;;;-1.36;59.85;100282.42;1694122;83;21032;-64
2022/02/03 20:15:30;;;;;;;4.03;2.60;;;;;;;-1.37;59.38;100276.85;1712318;83;21093;-64
2022/02/03 20:17:56;;;;;;;2.67;1.97;;;;;;;-1.34;59.54;100279.22;1709001;83;21029;-79
2022/02/03 20:20:22;;;;;;;3.50;3.20;;;;;;;-1.38;59.50;100277.78;1706255;83;21088;-64
2022/02/03 20:22:50;;;;;;;;;;;;;;;-1.42;59.72;100277.17;1704035;83;21306;-62
2022/02/03 20:25:17;;;;;;;3.42;2.90;;;;;;;-1.45;59.56;100272.19;1700344;84;20102;-63
2022/02/03 20:27:44;;;;;;;4.07;3.67;;;;;;;-1.52;59.56;100268.83;1693038;84;21136;-63
2022/02/03 20:30:12;;;;;;;2.60;2.25;;;;;;;-1.52;59.48;100259.20;1700996;84;21050;-64
2022/02/03 20:32:39;;;;;;;3.07;2.40;;;;;;;-1.54;58.88;100264.16;1703328;84;21530;-63
2022/02/03 20:35:08;;;;;;;3.33;2.37;;;;;;;-1.58;58.64;100255.73;1659001;85;21039;-63
2022/02/03 20:37:35;;;;;;;4.63;3.03;;;;;;;-1.59;59.27;100252.75;1662438;85;21110;-65
2022/02/03 20:40:02;;;;;;;;;;;;;;;-1.55;58.86;100250.27;1654193;86;20991;-63
2022/02/03 20:42:28;;;;;;;2.98;2.30;;;;;;;-1.64;58.11;100248.32;1603732;87;20123;-62
2022/02/03 20:44:55;;;;;;;3.35;2.00;;;;;;;-1.78;58.16;100246.72;1658507;84;20994;-64
2022/02/03 20:47:24;;;;;;;3.07;2.47;;;;;;;-1.83;58.68;100257.97;1662561;85;21010;-63
2022/02/03 20:49:50;;;;;;;2.67;2.47;;;;;;;-1.87;59.08;100249.52;1654441;85;21077;-63
2022/02/03 20:52:18;;;;;;;5.58;2.92;;;;;;;-1.88;58.41;100245.25;1647435;85;21491;-63
2022/02/03 20:54:45;;;;;;;3.47;2.67;;;;;;;-1.87;58.44;100247.38;1693627;84;20990;-63
2022/02/03 20:57:12;;;;;;;3.10;2.80;;;;;;;-1.86;58.29;100257.73;1699002;84;21078;-63
2022/02/03 21:02:32;;;;;;;3.53;2.77;;;;;;;-1.78;59.12;100250.16;1685151;84;21051;-63
2022/02/03 21:05:12;;;;;;;5.00;3.20;;;;;;;-1.75;58.90;100253.05;1693569;84;21643;-64
2022/02/03 21:07:35;;;;;;;3.57;2.63;;;;;;;-1.73;58.76;100256.83;1688483;84;21105;-63
2022/02/03 21:10:08;;;;;;;3.80;2.90;;;;;;;-1.79;58.04;100262.88;1694824;84;21495;-62
2022/02/03 21:12:33;;;;;;;3.47;2.97;;;;;;;-1.84;58.37;100269.38;1715470;83;21097;-63
2022/02/03 21:15:02;;;;;;;4.08;3.08;;;;;;;-1.93;59.08;100265.64;1715285;83;21049;-63
2022/02/03 21:17:31;;;;;;;3.70;2.73;;;;;;;-1.98;59.08;100274.27;1707970;83;21066;-63
2022/02/03 21:20:06;;;;;;;4.10;2.93;;;;;;;-1.97;59.24;100262.89;1714095;83;21022;-62
2022/02/03 21:22:25;;;;;;;5.47;2.70;;;;;;;-1.97;59.61;100270.73;1727885;83;21157;-62
2022/02/03 21:24:59;;;;;;;3.83;2.58;;;;;;;-1.95;58.80;100271.45;1711727;83;21083;-63
2022/02/03 21:27:20;;;;;;;6.40;3.63;;;;;;;-2.01;59.24;100264.88;1712457;83;21034;-63
2022/02/03 21:29:46;;;;;;;4.55;3.47;;;;;;;-2.03;60.05;100272.00;1726893;83;21054;-63
2022/02/03 21:32:13;;;;;;;3.35;3.08;;;;;;;-2.86;59.29;100133.41;1728465;83;21018;-62
2022/02/03 21:34:39;;;;;;;4.08;3.67;;;;;;;-2.03;59.72;100272.00;1691471;83;21592;-62
2022/02/03 21:37:05;;;;;;;4.40;3.00;;;;;;;-1.99;59.63;100272.62;1664684;85;21066;-63
2022/02/03 21:39:31;;;;;;;3.37;3.08;;;;;;;-1.96;59.71;100271.92;1668356;85;21027;-61
2022/02/03 21:41:57;;;;;;;5.75;3.47;;;;;;;-1.91;59.76;100274.20;1675419;85;21027;-62
2022/02/03 21:44:27;;;;;;;4.70;4.20;;;;;;;-1.99;59.24;100270.83;1665449;85;21200;-63
2022/02/03 21:46:52;;;;;;;4.40;3.00;;;;;;;-2.01;59.30;100276.64;1671310;84;21434;-64
2022/02/03 21:49:23;;;;;;;4.13;3.03;;;;;;;-2.08;59.70;100281.09;1670364;84;21041;-61
2022/02/03 21:51:48;;;;;;;6.20;2.90;;;;;;;-2.11;60.08;100287.84;1667561;85;21037;-62
2022/02/03 21:54:14;;;;;;;6.13;3.57;;;;;;;-2.14;60.25;100281.55;1668992;85;21045;-62
2022/02/03 21:56:42;;;;;;;3.42;2.85;;;;;;;-2.21;60.41;100266.28;1683274;85;21080;-63
2022/02/03 21:59:08;;;;;;;4.30;3.30;;;;;;;-2.18;60.82;100272.61;1669782;84;21076;-63
2022/02/03 22:01:40;;;;;;;3.12;2.83;;;;;;;-2.19;60.51;100283.16;1669248;85;21074;-62
2022/02/03 22:04:07;;;;;;;4.27;3.77;;;;;;;-2.22;60.60;100283.39;1663221;86;21530;-64
2022/02/03 22:06:34;;;;;;;4.70;4.30;;;;;;;-2.21;60.99;100283.25;1670331;85;21623;-63
2022/02/03 22:09:00;;;;;;;;;;;;;;;-2.19;60.92;100283.98;1665688;85;21022;-63
2022/02/03 22:11:27;;;;;;;4.30;3.43;;;;;;;-2.18;60.62;100298.72;1677294;85;20209;-62
2022/02/03 22:13:53;;;;;;;3.95;3.40;;;;;;;-2.22;60.63;100298.58;1690052;84;21538;-62
2022/02/03 22:16:23;;;;;;;3.95;3.12;;;;;;;-2.21;60.65;100289.78;1693818;84;20984;-62
2022/02/03 22:18:47;;;;;;;4.63;3.60;;;;;;;-2.20;61.22;100291.95;1696141;84;20999;-63
2022/02/03 22:24:23;;;;;;;3.47;3.00;;;;;;;-2.27;61.30;100291.52;1674594;84;21662;-62
2022/02/03 22:27:16;;;;;;;4.87;3.37;;;;;;;-2.24;61.17;100286.09;1671682;84;21028;-62
2022/02/03 22:39:06;;;;;;;5.10;3.77;;;;;;;-2.23;61.37;100280.40;1693552;83;21072;-63